sensor_id;sensor_type;location;lat;lon;timestamp;P1;durP1;ratioP1;P2;durP2;ratioP2
26319;SDS011;14024;52.226;5.200;2023-08-20T00:00:16;9.00;;;3.85;;
26319;SDS011;14024;52.226;5.200;2023-08-20T00:02:42;7.65;;;3.63;;
26319;SDS011;14024;52.226;5.200;2023-08-20T00:05:08;12.75;;;3.90;;
26319;SDS011;14024;52.226;5.200;2023-08-20T00:07:34;16.13;;;4.20;;
26319;SDS011;14024;52.226;5.200;2023-08-20T00:10:01;10.90;;;3.90;;
26319;SDS011;14024;52.226;5.200;2023-08-20T00:12:29;8.05;;;3.85;;
26319;SDS011;14024;52.226;5.200;2023-08-20T00:14:58;13.18;;;4.03;;
26319;SDS011;14024;52.226;5.200;2023-08-20T00:17:32;14.73;;;4.30;;
26319;SDS011;14024;52.226;5.200;2023-08-20T00:19:57;17.75;;;4.03;;
26319;SDS011;14024;52.226;5.200;2023-08-20T00:22:23;13.95;;;4.15;;
26319;SDS011;14024;52.226;5.200;2023-08-20T00:24:53;11.75;;;4.03;;
26319;SDS011;14024;52.226;5.200;2023-08-20T00:27:19;11.57;;;3.75;;
26319;SDS011;14024;52.226;5.200;2023-08-20T00:29:45;9.20;;;3.72;;
26319;SDS011;14024;52.226;5.200;2023-08-20T00:32:10;10.68;;;3.92;;
26319;SDS011;14024;52.226;5.200;2023-08-20T00:34:36;8.70;;;3.97;;
26319;SDS011;14024;52.226;5.200;2023-08-20T00:37:02;10.05;;;4.30;;
26319;SDS011;14024;52.226;5.200;2023-08-20T00:39:28;9.45;;;3.83;;
26319;SDS011;14024;52.226;5.200;2023-08-20T00:41:54;9.50;;;4.38;;
26319;SDS011;14024;52.226;5.200;2023-08-20T00:44:19;10.25;;;4.05;;
26319;SDS011;14024;52.226;5.200;2023-08-20T00:46:45;8.27;;;3.63;;
26319;SDS011;14024;52.226;5.200;2023-08-20T00:49:10;10.73;;;3.55;;
26319;SDS011;14024;52.226;5.200;2023-08-20T00:51:36;9.50;;;3.95;;
26319;SDS011;14024;52.226;5.200;2023-08-20T00:54:02;13.27;;;4.10;;
26319;SDS011;14024;52.226;5.200;2023-08-20T00:56:28;9.32;;;3.55;;
26319;SDS011;14024;52.226;5.200;2023-08-20T00:58:54;9.30;;;3.42;;
26319;SDS011;14024;52.226;5.200;2023-08-20T01:01:20;10.07;;;3.65;;
26319;SDS011;14024;52.226;5.200;2023-08-20T01:03:47;14.18;;;4.55;;
26319;SDS011;14024;52.226;5.200;2023-08-20T01:06:19;11.77;;;4.30;;
26319;SDS011;14024;52.226;5.200;2023-08-20T01:08:53;14.50;;;4.20;;
26319;SDS011;14024;52.226;5.200;2023-08-20T01:11:29;11.70;;;3.75;;
26319;SDS011;14024;52.226;5.200;2023-08-20T01:13:58;10.50;;;3.85;;
26319;SDS011;14024;52.226;5.200;2023-08-20T01:16:24;12.15;;;3.58;;
26319;SDS011;14024;52.226;5.200;2023-08-20T01:18:49;8.23;;;4.15;;
26319;SDS011;14024;52.226;5.200;2023-08-20T01:21:37;11.57;;;4.03;;
26319;SDS011;14024;52.226;5.200;2023-08-20T01:29:44;9.38;;;3.83;;
26319;SDS011;14024;52.226;5.200;2023-08-20T01:32:10;10.73;;;4.13;;
26319;SDS011;14024;52.226;5.200;2023-08-20T01:34:37;12.60;;;4.13;;
26319;SDS011;14024;52.226;5.200;2023-08-20T01:37:03;9.07;;;3.45;;
26319;SDS011;14024;52.226;5.200;2023-08-20T01:39:28;9.10;;;3.85;;
26319;SDS011;14024;52.226;5.200;2023-08-20T01:41:54;8.43;;;3.20;;
26319;SDS011;14024;52.226;5.200;2023-08-20T01:44:19;13.98;;;4.28;;
26319;SDS011;14024;52.226;5.200;2023-08-20T01:46:44;11.18;;;3.83;;
26319;SDS011;14024;52.226;5.200;2023-08-20T01:49:10;10.70;;;4.05;;
26319;SDS011;14024;52.226;5.200;2023-08-20T01:51:35;8.70;;;4.00;;
26319;SDS011;14024;52.226;5.200;2023-08-20T01:54:01;7.20;;;3.95;;
26319;SDS011;14024;52.226;5.200;2023-08-20T01:56:27;7.53;;;3.80;;
26319;SDS011;14024;52.226;5.200;2023-08-20T01:58:52;11.50;;;4.30;;
26319;SDS011;14024;52.226;5.200;2023-08-20T02:01:18;8.10;;;3.38;;
26319;SDS011;14024;52.226;5.200;2023-08-20T02:03:43;10.70;;;4.43;;
26319;SDS011;14024;52.226;5.200;2023-08-20T02:06:09;14.55;;;3.92;;
26319;SDS011;14024;52.226;5.200;2023-08-20T02:08:34;13.48;;;4.18;;
26319;SDS011;14024;52.226;5.200;2023-08-20T02:11:00;7.93;;;4.05;;
26319;SDS011;14024;52.226;5.200;2023-08-20T02:13:27;9.93;;;3.97;;
26319;SDS011;14024;52.226;5.200;2023-08-20T02:16:02;9.05;;;4.05;;
26319;SDS011;14024;52.226;5.200;2023-08-20T02:18:29;8.55;;;3.85;;
26319;SDS011;14024;52.226;5.200;2023-08-20T02:20:56;7.95;;;3.72;;
26319;SDS011;14024;52.226;5.200;2023-08-20T02:23:22;7.47;;;3.80;;
26319;SDS011;14024;52.226;5.200;2023-08-20T02:25:48;9.60;;;3.60;;
26319;SDS011;14024;52.226;5.200;2023-08-20T02:28:13;9.25;;;3.72;;
26319;SDS011;14024;52.226;5.200;2023-08-20T02:30:40;10.02;;;3.65;;
26319;SDS011;14024;52.226;5.200;2023-08-20T02:33:09;12.90;;;4.30;;
26319;SDS011;14024;52.226;5.200;2023-08-20T02:35:36;7.75;;;3.40;;
26319;SDS011;14024;52.226;5.200;2023-08-20T02:38:05;8.52;;;3.75;;
26319;SDS011;14024;52.226;5.200;2023-08-20T02:40:31;10.57;;;3.97;;
26319;SDS011;14024;52.226;5.200;2023-08-20T02:42:57;9.50;;;3.75;;
26319;SDS011;14024;52.226;5.200;2023-08-20T02:45:22;12.48;;;3.85;;
26319;SDS011;14024;52.226;5.200;2023-08-20T02:47:48;9.85;;;3.75;;
26319;SDS011;14024;52.226;5.200;2023-08-20T02:50:14;8.88;;;3.92;;
26319;SDS011;14024;52.226;5.200;2023-08-20T02:52:41;10.68;;;3.95;;
26319;SDS011;14024;52.226;5.200;2023-08-20T02:55:07;7.63;;;3.75;;
26319;SDS011;14024;52.226;5.200;2023-08-20T02:57:33;7.07;;;3.80;;
26319;SDS011;14024;52.226;5.200;2023-08-20T02:59:58;11.60;;;4.43;;
26319;SDS011;14024;52.226;5.200;2023-08-20T03:02:23;13.10;;;5.22;;
26319;SDS011;14024;52.226;5.200;2023-08-20T03:04:49;13.95;;;4.50;;
26319;SDS011;14024;52.226;5.200;2023-08-20T03:07:14;11.23;;;4.60;;
26319;SDS011;14024;52.226;5.200;2023-08-20T03:09:39;12.40;;;5.05;;
26319;SDS011;14024;52.226;5.200;2023-08-20T03:12:05;16.58;;;5.35;;
26319;SDS011;14024;52.226;5.200;2023-08-20T03:14:30;13.43;;;5.35;;
26319;SDS011;14024;52.226;5.200;2023-08-20T03:16:56;13.52;;;4.55;;
26319;SDS011;14024;52.226;5.200;2023-08-20T03:19:21;9.35;;;4.60;;
26319;SDS011;14024;52.226;5.200;2023-08-20T03:21:47;12.80;;;4.72;;
26319;SDS011;14024;52.226;5.200;2023-08-20T03:24:12;8.45;;;4.95;;
26319;SDS011;14024;52.226;5.200;2023-08-20T03:26:37;12.65;;;4.30;;
26319;SDS011;14024;52.226;5.200;2023-08-20T03:29:03;15.43;;;4.95;;
26319;SDS011;14024;52.226;5.200;2023-08-20T03:31:29;10.43;;;4.35;;
26319;SDS011;14024;52.226;5.200;2023-08-20T03:33:54;14.55;;;5.07;;
26319;SDS011;14024;52.226;5.200;2023-08-20T03:36:19;13.07;;;4.32;;
26319;SDS011;14024;52.226;5.200;2023-08-20T03:38:45;16.50;;;4.55;;
26319;SDS011;14024;52.226;5.200;2023-08-20T03:41:10;11.02;;;4.30;;
26319;SDS011;14024;52.226;5.200;2023-08-20T03:43:35;10.18;;;4.97;;
26319;SDS011;14024;52.226;5.200;2023-08-20T03:46:01;10.93;;;4.30;;
26319;SDS011;14024;52.226;5.200;2023-08-20T03:48:27;18.58;;;5.05;;
26319;SDS011;14024;52.226;5.200;2023-08-20T03:50:53;15.45;;;4.68;;
26319;SDS011;14024;52.226;5.200;2023-08-20T03:53:18;9.27;;;4.38;;
26319;SDS011;14024;52.226;5.200;2023-08-20T03:55:47;11.82;;;4.50;;
26319;SDS011;14024;52.226;5.200;2023-08-20T03:58:13;8.27;;;3.78;;
26319;SDS011;14024;52.226;5.200;2023-08-20T04:00:39;10.45;;;4.38;;
26319;SDS011;14024;52.226;5.200;2023-08-20T04:03:04;11.80;;;5.10;;
26319;SDS011;14024;52.226;5.200;2023-08-20T04:05:35;12.30;;;5.22;;
26319;SDS011;14024;52.226;5.200;2023-08-20T04:08:04;13.73;;;4.85;;
26319;SDS011;14024;52.226;5.200;2023-08-20T04:10:30;12.98;;;4.85;;
26319;SDS011;14024;52.226;5.200;2023-08-20T04:12:56;14.50;;;4.97;;
26319;SDS011;14024;52.226;5.200;2023-08-20T04:15:22;15.90;;;4.95;;
26319;SDS011;14024;52.226;5.200;2023-08-20T04:17:48;12.77;;;4.90;;
26319;SDS011;14024;52.226;5.200;2023-08-20T04:20:14;16.45;;;5.63;;
26319;SDS011;14024;52.226;5.200;2023-08-20T04:22:39;11.93;;;5.00;;
26319;SDS011;14024;52.226;5.200;2023-08-20T04:25:05;13.98;;;4.75;;
26319;SDS011;14024;52.226;5.200;2023-08-20T04:27:31;13.18;;;5.30;;
26319;SDS011;14024;52.226;5.200;2023-08-20T04:29:57;9.93;;;4.50;;
26319;SDS011;14024;52.226;5.200;2023-08-20T04:32:22;9.55;;;4.53;;
26319;SDS011;14024;52.226;5.200;2023-08-20T04:34:48;14.20;;;4.60;;
26319;SDS011;14024;52.226;5.200;2023-08-20T04:37:14;12.07;;;4.90;;
26319;SDS011;14024;52.226;5.200;2023-08-20T04:39:41;13.65;;;4.70;;
26319;SDS011;14024;52.226;5.200;2023-08-20T04:42:07;8.35;;;3.78;;
26319;SDS011;14024;52.226;5.200;2023-08-20T04:44:32;10.25;;;4.40;;
26319;SDS011;14024;52.226;5.200;2023-08-20T04:46:57;7.22;;;4.35;;
26319;SDS011;14024;52.226;5.200;2023-08-20T04:49:25;11.57;;;4.80;;
26319;SDS011;14024;52.226;5.200;2023-08-20T04:51:53;13.15;;;4.45;;
26319;SDS011;14024;52.226;5.200;2023-08-20T04:54:19;10.95;;;5.28;;
26319;SDS011;14024;52.226;5.200;2023-08-20T04:56:44;15.00;;;5.35;;
26319;SDS011;14024;52.226;5.200;2023-08-20T04:59:10;13.07;;;5.45;;
26319;SDS011;14024;52.226;5.200;2023-08-20T05:01:36;8.82;;;4.85;;
26319;SDS011;14024;52.226;5.200;2023-08-20T05:04:03;14.27;;;5.15;;
26319;SDS011;14024;52.226;5.200;2023-08-20T05:06:28;15.07;;;5.70;;
26319;SDS011;14024;52.226;5.200;2023-08-20T05:08:54;11.88;;;5.25;;
26319;SDS011;14024;52.226;5.200;2023-08-20T05:11:20;8.52;;;4.18;;
26319;SDS011;14024;52.226;5.200;2023-08-20T05:13:47;12.25;;;4.50;;
26319;SDS011;14024;52.226;5.200;2023-08-20T05:16:14;16.13;;;4.82;;
26319;SDS011;14024;52.226;5.200;2023-08-20T05:18:40;15.57;;;4.68;;
26319;SDS011;14024;52.226;5.200;2023-08-20T05:21:05;12.52;;;4.50;;
26319;SDS011;14024;52.226;5.200;2023-08-20T05:23:31;11.52;;;4.45;;
26319;SDS011;14024;52.226;5.200;2023-08-20T05:25:56;10.35;;;4.78;;
26319;SDS011;14024;52.226;5.200;2023-08-20T05:28:21;11.05;;;4.68;;
26319;SDS011;14024;52.226;5.200;2023-08-20T05:30:56;13.75;;;5.75;;
26319;SDS011;14024;52.226;5.200;2023-08-20T05:33:22;11.48;;;5.03;;
26319;SDS011;14024;52.226;5.200;2023-08-20T05:35:48;9.60;;;4.50;;
26319;SDS011;14024;52.226;5.200;2023-08-20T05:38:14;13.70;;;4.95;;
26319;SDS011;14024;52.226;5.200;2023-08-20T05:40:39;13.40;;;5.22;;
26319;SDS011;14024;52.226;5.200;2023-08-20T05:43:04;10.23;;;4.53;;
26319;SDS011;14024;52.226;5.200;2023-08-20T05:45:30;16.05;;;5.22;;
26319;SDS011;14024;52.226;5.200;2023-08-20T05:47:55;9.93;;;4.57;;
26319;SDS011;14024;52.226;5.200;2023-08-20T05:50:20;13.88;;;4.90;;
26319;SDS011;14024;52.226;5.200;2023-08-20T05:52:46;13.30;;;5.22;;
26319;SDS011;14024;52.226;5.200;2023-08-20T05:55:11;9.77;;;4.30;;
26319;SDS011;14024;52.226;5.200;2023-08-20T05:57:37;24.65;;;4.70;;
26319;SDS011;14024;52.226;5.200;2023-08-20T06:00:03;8.73;;;5.00;;
26319;SDS011;14024;52.226;5.200;2023-08-20T06:02:29;14.43;;;4.43;;
26319;SDS011;14024;52.226;5.200;2023-08-20T06:04:55;14.00;;;5.13;;
26319;SDS011;14024;52.226;5.200;2023-08-20T06:07:20;13.55;;;4.97;;
26319;SDS011;14024;52.226;5.200;2023-08-20T06:09:46;21.67;;;4.82;;
26319;SDS011;14024;52.226;5.200;2023-08-20T06:12:11;14.35;;;4.95;;
26319;SDS011;14024;52.226;5.200;2023-08-20T06:14:37;10.70;;;4.07;;
26319;SDS011;14024;52.226;5.200;2023-08-20T06:17:02;9.05;;;4.30;;
26319;SDS011;14024;52.226;5.200;2023-08-20T06:19:27;14.90;;;4.93;;
26319;SDS011;14024;52.226;5.200;2023-08-20T06:21:54;9.80;;;3.63;;
26319;SDS011;14024;52.226;5.200;2023-08-20T06:24:19;15.90;;;4.50;;
26319;SDS011;14024;52.226;5.200;2023-08-20T06:26:44;14.27;;;4.40;;
26319;SDS011;14024;52.226;5.200;2023-08-20T06:29:10;24.88;;;4.88;;
26319;SDS011;14024;52.226;5.200;2023-08-20T06:31:36;13.20;;;5.05;;
26319;SDS011;14024;52.226;5.200;2023-08-20T06:34:01;10.60;;;4.30;;
26319;SDS011;14024;52.226;5.200;2023-08-20T06:36:27;15.50;;;4.88;;
26319;SDS011;14024;52.226;5.200;2023-08-20T06:38:52;16.15;;;4.28;;
26319;SDS011;14024;52.226;5.200;2023-08-20T06:41:18;13.13;;;4.15;;
26319;SDS011;14024;52.226;5.200;2023-08-20T06:43:43;12.23;;;4.18;;
26319;SDS011;14024;52.226;5.200;2023-08-20T06:46:10;14.93;;;4.55;;
26319;SDS011;14024;52.226;5.200;2023-08-20T06:48:35;21.55;;;4.43;;
26319;SDS011;14024;52.226;5.200;2023-08-20T06:51:13;12.43;;;4.25;;
26319;SDS011;14024;52.226;5.200;2023-08-20T06:53:40;22.33;;;4.60;;
26319;SDS011;14024;52.226;5.200;2023-08-20T06:56:07;13.65;;;4.25;;
26319;SDS011;14024;52.226;5.200;2023-08-20T06:58:33;9.73;;;3.75;;
26319;SDS011;14024;52.226;5.200;2023-08-20T07:00:58;14.43;;;4.35;;
26319;SDS011;14024;52.226;5.200;2023-08-20T07:03:32;10.52;;;3.60;;
26319;SDS011;14024;52.226;5.200;2023-08-20T07:06:02;12.25;;;3.95;;
26319;SDS011;14024;52.226;5.200;2023-08-20T07:08:28;13.63;;;3.83;;
26319;SDS011;14024;52.226;5.200;2023-08-20T07:10:53;14.43;;;4.03;;
26319;SDS011;14024;52.226;5.200;2023-08-20T07:13:20;16.88;;;4.03;;
26319;SDS011;14024;52.226;5.200;2023-08-20T07:15:46;12.35;;;3.30;;
26319;SDS011;14024;52.226;5.200;2023-08-20T07:18:11;6.82;;;2.92;;
26319;SDS011;14024;52.226;5.200;2023-08-20T07:20:47;18.63;;;3.35;;
26319;SDS011;14024;52.226;5.200;2023-08-20T07:23:12;12.85;;;3.83;;
26319;SDS011;14024;52.226;5.200;2023-08-20T07:25:39;17.23;;;4.60;;
26319;SDS011;14024;52.226;5.200;2023-08-20T07:28:05;16.08;;;3.90;;
26319;SDS011;14024;52.226;5.200;2023-08-20T07:30:31;16.35;;;3.85;;
26319;SDS011;14024;52.226;5.200;2023-08-20T07:32:57;14.88;;;3.88;;
26319;SDS011;14024;52.226;5.200;2023-08-20T07:35:23;13.60;;;3.58;;
26319;SDS011;14024;52.226;5.200;2023-08-20T07:37:49;16.98;;;3.70;;
26319;SDS011;14024;52.226;5.200;2023-08-20T07:40:14;13.48;;;3.53;;
26319;SDS011;14024;52.226;5.200;2023-08-20T07:42:40;16.83;;;3.50;;
26319;SDS011;14024;52.226;5.200;2023-08-20T07:45:06;15.63;;;4.05;;
26319;SDS011;14024;52.226;5.200;2023-08-20T07:47:32;20.20;;;4.07;;
26319;SDS011;14024;52.226;5.200;2023-08-20T07:49:59;15.07;;;3.65;;
26319;SDS011;14024;52.226;5.200;2023-08-20T07:52:24;16.17;;;4.05;;
26319;SDS011;14024;52.226;5.200;2023-08-20T07:54:50;15.98;;;3.90;;
26319;SDS011;14024;52.226;5.200;2023-08-20T07:57:15;12.20;;;3.80;;
26319;SDS011;14024;52.226;5.200;2023-08-20T07:59:40;16.58;;;4.18;;
26319;SDS011;14024;52.226;5.200;2023-08-20T08:02:06;15.25;;;3.92;;
26319;SDS011;14024;52.226;5.200;2023-08-20T08:04:31;17.30;;;4.07;;
26319;SDS011;14024;52.226;5.200;2023-08-20T08:06:57;16.08;;;3.33;;
26319;SDS011;14024;52.226;5.200;2023-08-20T08:09:29;11.68;;;3.38;;
26319;SDS011;14024;52.226;5.200;2023-08-20T08:11:56;12.77;;;3.75;;
26319;SDS011;14024;52.226;5.200;2023-08-20T08:14:26;12.65;;;3.65;;
26319;SDS011;14024;52.226;5.200;2023-08-20T08:16:52;12.25;;;3.30;;
26319;SDS011;14024;52.226;5.200;2023-08-20T08:19:18;13.75;;;3.72;;
26319;SDS011;14024;52.226;5.200;2023-08-20T08:21:45;13.98;;;3.40;;
26319;SDS011;14024;52.226;5.200;2023-08-20T08:24:12;13.10;;;3.25;;
26319;SDS011;14024;52.226;5.200;2023-08-20T08:26:39;14.77;;;3.22;;
26319;SDS011;14024;52.226;5.200;2023-08-20T08:29:06;14.73;;;3.35;;
26319;SDS011;14024;52.226;5.200;2023-08-20T08:31:32;8.23;;;2.90;;
26319;SDS011;14024;52.226;5.200;2023-08-20T08:33:58;11.75;;;3.75;;
26319;SDS011;14024;52.226;5.200;2023-08-20T08:36:23;9.23;;;3.55;;
26319;SDS011;14024;52.226;5.200;2023-08-20T08:38:52;10.23;;;3.13;;
26319;SDS011;14024;52.226;5.200;2023-08-20T08:41:17;14.60;;;4.20;;
26319;SDS011;14024;52.226;5.200;2023-08-20T08:43:46;17.40;;;3.33;;
26319;SDS011;14024;52.226;5.200;2023-08-20T08:46:13;15.27;;;3.63;;
26319;SDS011;14024;52.226;5.200;2023-08-20T08:48:40;13.02;;;3.00;;
26319;SDS011;14024;52.226;5.200;2023-08-20T08:51:07;9.48;;;2.95;;
26319;SDS011;14024;52.226;5.200;2023-08-20T08:53:33;10.77;;;3.80;;
26319;SDS011;14024;52.226;5.200;2023-08-20T08:55:59;14.07;;;2.70;;
26319;SDS011;14024;52.226;5.200;2023-08-20T08:58:25;9.27;;;3.17;;
26319;SDS011;14024;52.226;5.200;2023-08-20T09:00:50;9.68;;;2.97;;
26319;SDS011;14024;52.226;5.200;2023-08-20T09:03:16;12.32;;;2.85;;
26319;SDS011;14024;52.226;5.200;2023-08-20T09:05:53;13.23;;;2.70;;
26319;SDS011;14024;52.226;5.200;2023-08-20T09:08:21;13.20;;;2.95;;
26319;SDS011;14024;52.226;5.200;2023-08-20T09:10:49;11.07;;;3.10;;
26319;SDS011;14024;52.226;5.200;2023-08-20T09:13:17;6.78;;;2.47;;
26319;SDS011;14024;52.226;5.200;2023-08-20T09:15:42;9.18;;;2.88;;
26319;SDS011;14024;52.226;5.200;2023-08-20T09:18:11;10.80;;;2.55;;
26319;SDS011;14024;52.226;5.200;2023-08-20T09:20:37;10.55;;;2.70;;
26319;SDS011;14024;52.226;5.200;2023-08-20T09:23:02;11.45;;;2.63;;
26319;SDS011;14024;52.226;5.200;2023-08-20T09:25:29;7.00;;;2.95;;
26319;SDS011;14024;52.226;5.200;2023-08-20T09:27:54;12.07;;;3.58;;
26319;SDS011;14024;52.226;5.200;2023-08-20T09:30:20;10.70;;;2.90;;
26319;SDS011;14024;52.226;5.200;2023-08-20T09:32:45;10.95;;;2.78;;
26319;SDS011;14024;52.226;5.200;2023-08-20T09:35:27;5.90;;;2.15;;
26319;SDS011;14024;52.226;5.200;2023-08-20T09:37:58;8.68;;;2.78;;
26319;SDS011;14024;52.226;5.200;2023-08-20T09:40:24;11.40;;;2.83;;
26319;SDS011;14024;52.226;5.200;2023-08-20T09:42:51;8.30;;;2.53;;
26319;SDS011;14024;52.226;5.200;2023-08-20T09:45:18;17.85;;;3.28;;
26319;SDS011;14024;52.226;5.200;2023-08-20T09:47:45;6.20;;;2.53;;
26319;SDS011;14024;52.226;5.200;2023-08-20T09:50:19;13.98;;;3.05;;
26319;SDS011;14024;52.226;5.200;2023-08-20T09:52:48;8.38;;;2.70;;
26319;SDS011;14024;52.226;5.200;2023-08-20T09:55:22;11.98;;;3.35;;
26319;SDS011;14024;52.226;5.200;2023-08-20T09:57:54;8.00;;;2.35;;
26319;SDS011;14024;52.226;5.200;2023-08-20T10:00:21;6.25;;;1.98;;
26319;SDS011;14024;52.226;5.200;2023-08-20T10:02:47;6.75;;;2.22;;
26319;SDS011;14024;52.226;5.200;2023-08-20T10:05:13;11.60;;;2.60;;
26319;SDS011;14024;52.226;5.200;2023-08-20T10:07:40;8.73;;;2.50;;
26319;SDS011;14024;52.226;5.200;2023-08-20T10:10:08;6.95;;;2.50;;
26319;SDS011;14024;52.226;5.200;2023-08-20T10:12:36;5.95;;;2.30;;
26319;SDS011;14024;52.226;5.200;2023-08-20T10:15:04;8.20;;;2.42;;
26319;SDS011;14024;52.226;5.200;2023-08-20T10:17:33;7.78;;;2.42;;
26319;SDS011;14024;52.226;5.200;2023-08-20T10:20:00;14.48;;;2.85;;
26319;SDS011;14024;52.226;5.200;2023-08-20T10:22:35;12.32;;;2.92;;
26319;SDS011;14024;52.226;5.200;2023-08-20T10:25:05;6.95;;;2.17;;
26319;SDS011;14024;52.226;5.200;2023-08-20T10:27:34;7.15;;;2.50;;
26319;SDS011;14024;52.226;5.200;2023-08-20T10:30:08;9.50;;;2.20;;
26319;SDS011;14024;52.226;5.200;2023-08-20T10:32:44;6.00;;;1.83;;
26319;SDS011;14024;52.226;5.200;2023-08-20T10:35:27;5.90;;;2.10;;
26319;SDS011;14024;52.226;5.200;2023-08-20T10:38:01;7.82;;;2.25;;
26319;SDS011;14024;52.226;5.200;2023-08-20T10:40:47;7.72;;;2.10;;
26319;SDS011;14024;52.226;5.200;2023-08-20T10:43:26;12.15;;;2.20;;
26319;SDS011;14024;52.226;5.200;2023-08-20T10:46:07;6.10;;;1.98;;
26319;SDS011;14024;52.226;5.200;2023-08-20T10:48:40;8.77;;;2.45;;
26319;SDS011;14024;52.226;5.200;2023-08-20T10:53:35;7.10;;;2.67;;
26319;SDS011;14024;52.226;5.200;2023-08-20T10:59:07;6.78;;;2.10;;
26319;SDS011;14024;52.226;5.200;2023-08-20T11:01:47;9.68;;;2.80;;
26319;SDS011;14024;52.226;5.200;2023-08-20T11:04:17;5.95;;;2.00;;
26319;SDS011;14024;52.226;5.200;2023-08-20T11:06:45;4.43;;;1.70;;
26319;SDS011;14024;52.226;5.200;2023-08-20T11:09:12;5.35;;;1.92;;
26319;SDS011;14024;52.226;5.200;2023-08-20T11:11:38;4.47;;;1.70;;
26319;SDS011;14024;52.226;5.200;2023-08-20T11:14:08;6.50;;;2.22;;
26319;SDS011;14024;52.226;5.200;2023-08-20T11:16:39;5.50;;;1.60;;
26319;SDS011;14024;52.226;5.200;2023-08-20T11:19:04;13.55;;;2.40;;
26319;SDS011;14024;52.226;5.200;2023-08-20T11:21:34;9.10;;;2.20;;
26319;SDS011;14024;52.226;5.200;2023-08-20T11:24:00;7.38;;;2.38;;
26319;SDS011;14024;52.226;5.200;2023-08-20T11:26:26;12.52;;;2.45;;
26319;SDS011;14024;52.226;5.200;2023-08-20T11:28:51;6.97;;;2.10;;
26319;SDS011;14024;52.226;5.200;2023-08-20T11:31:17;4.75;;;1.80;;
26319;SDS011;14024;52.226;5.200;2023-08-20T11:33:42;6.82;;;1.98;;
26319;SDS011;14024;52.226;5.200;2023-08-20T11:36:08;5.43;;;2.00;;
26319;SDS011;14024;52.226;5.200;2023-08-20T11:38:33;10.45;;;2.38;;
26319;SDS011;14024;52.226;5.200;2023-08-20T11:40:58;5.55;;;1.70;;
26319;SDS011;14024;52.226;5.200;2023-08-20T11:43:26;8.77;;;2.35;;
26319;SDS011;14024;52.226;5.200;2023-08-20T11:45:52;7.10;;;2.20;;
26319;SDS011;14024;52.226;5.200;2023-08-20T11:48:19;7.43;;;2.10;;
26319;SDS011;14024;52.226;5.200;2023-08-20T11:50:46;8.52;;;2.30;;
26319;SDS011;14024;52.226;5.200;2023-08-20T11:53:12;4.70;;;1.70;;
26319;SDS011;14024;52.226;5.200;2023-08-20T11:55:38;4.60;;;1.85;;
26319;SDS011;14024;52.226;5.200;2023-08-20T11:58:04;10.00;;;2.70;;
26319;SDS011;14024;52.226;5.200;2023-08-20T12:00:30;5.63;;;2.08;;
26319;SDS011;14024;52.226;5.200;2023-08-20T12:02:57;6.90;;;2.20;;
26319;SDS011;14024;52.226;5.200;2023-08-20T12:05:26;9.13;;;2.30;;
26319;SDS011;14024;52.226;5.200;2023-08-20T12:07:58;8.43;;;2.60;;
26319;SDS011;14024;52.226;5.200;2023-08-20T12:10:29;6.80;;;2.20;;
26319;SDS011;14024;52.226;5.200;2023-08-20T12:12:56;6.22;;;2.17;;
26319;SDS011;14024;52.226;5.200;2023-08-20T12:15:23;6.13;;;2.22;;
26319;SDS011;14024;52.226;5.200;2023-08-20T12:18:05;9.55;;;2.28;;
26319;SDS011;14024;52.226;5.200;2023-08-20T12:20:32;6.22;;;2.53;;
26319;SDS011;14024;52.226;5.200;2023-08-20T12:22:59;8.30;;;2.40;;
26319;SDS011;14024;52.226;5.200;2023-08-20T12:25:26;8.95;;;2.35;;
26319;SDS011;14024;52.226;5.200;2023-08-20T12:27:54;9.93;;;2.30;;
26319;SDS011;14024;52.226;5.200;2023-08-20T12:30:21;7.32;;;2.00;;
26319;SDS011;14024;52.226;5.200;2023-08-20T12:32:46;8.85;;;2.38;;
26319;SDS011;14024;52.226;5.200;2023-08-20T12:35:12;7.88;;;2.20;;
26319;SDS011;14024;52.226;5.200;2023-08-20T12:37:38;8.02;;;2.38;;
26319;SDS011;14024;52.226;5.200;2023-08-20T12:40:04;7.20;;;1.83;;
26319;SDS011;14024;52.226;5.200;2023-08-20T12:42:34;8.25;;;1.75;;
26319;SDS011;14024;52.226;5.200;2023-08-20T12:44:59;3.70;;;1.50;;
26319;SDS011;14024;52.226;5.200;2023-08-20T12:47:25;5.45;;;1.88;;
26319;SDS011;14024;52.226;5.200;2023-08-20T12:49:50;7.57;;;2.30;;
26319;SDS011;14024;52.226;5.200;2023-08-20T12:52:15;7.38;;;2.17;;
26319;SDS011;14024;52.226;5.200;2023-08-20T12:54:41;9.60;;;2.67;;
26319;SDS011;14024;52.226;5.200;2023-08-20T12:57:06;5.65;;;2.00;;
26319;SDS011;14024;52.226;5.200;2023-08-20T12:59:32;6.80;;;1.88;;
26319;SDS011;14024;52.226;5.200;2023-08-20T13:01:57;7.10;;;1.90;;
26319;SDS011;14024;52.226;5.200;2023-08-20T13:04:23;7.35;;;1.98;;
26319;SDS011;14024;52.226;5.200;2023-08-20T13:06:49;6.30;;;1.70;;
26319;SDS011;14024;52.226;5.200;2023-08-20T13:09:14;6.07;;;1.95;;
26319;SDS011;14024;52.226;5.200;2023-08-20T13:11:40;6.18;;;1.80;;
26319;SDS011;14024;52.226;5.200;2023-08-20T13:14:09;6.07;;;2.00;;
26319;SDS011;14024;52.226;5.200;2023-08-20T13:16:35;5.40;;;1.80;;
26319;SDS011;14024;52.226;5.200;2023-08-20T13:19:00;5.13;;;1.70;;
26319;SDS011;14024;52.226;5.200;2023-08-20T13:21:27;3.60;;;1.40;;
26319;SDS011;14024;52.226;5.200;2023-08-20T13:23:53;3.70;;;1.70;;
26319;SDS011;14024;52.226;5.200;2023-08-20T13:26:18;5.35;;;1.38;;
26319;SDS011;14024;52.226;5.200;2023-08-20T13:28:45;5.35;;;1.85;;
26319;SDS011;14024;52.226;5.200;2023-08-20T13:31:10;3.00;;;1.50;;
26319;SDS011;14024;52.226;5.200;2023-08-20T13:33:36;6.30;;;1.40;;
26319;SDS011;14024;52.226;5.200;2023-08-20T13:36:01;6.05;;;1.55;;
26319;SDS011;14024;52.226;5.200;2023-08-20T13:38:27;5.72;;;1.52;;
26319;SDS011;14024;52.226;5.200;2023-08-20T13:40:52;3.58;;;1.33;;
26319;SDS011;14024;52.226;5.200;2023-08-20T13:43:19;5.53;;;1.20;;
26319;SDS011;14024;52.226;5.200;2023-08-20T13:45:44;6.00;;;1.48;;
26319;SDS011;14024;52.226;5.200;2023-08-20T13:48:09;7.85;;;4.28;;
26319;SDS011;14024;52.226;5.200;2023-08-20T13:50:34;2.13;;;1.20;;
26319;SDS011;14024;52.226;5.200;2023-08-20T13:53:00;5.15;;;1.73;;
26319;SDS011;14024;52.226;5.200;2023-08-20T13:55:25;3.67;;;1.73;;
26319;SDS011;14024;52.226;5.200;2023-08-20T13:57:51;5.50;;;1.60;;
26319;SDS011;14024;52.226;5.200;2023-08-20T14:00:16;5.43;;;1.35;;
26319;SDS011;14024;52.226;5.200;2023-08-20T14:02:41;6.70;;;1.80;;
26319;SDS011;14024;52.226;5.200;2023-08-20T14:05:08;6.60;;;1.70;;
26319;SDS011;14024;52.226;5.200;2023-08-20T14:07:33;6.03;;;1.80;;
26319;SDS011;14024;52.226;5.200;2023-08-20T14:09:59;4.72;;;1.70;;
26319;SDS011;14024;52.226;5.200;2023-08-20T14:12:25;4.32;;;1.70;;
26319;SDS011;14024;52.226;5.200;2023-08-20T14:14:50;5.95;;;1.70;;
26319;SDS011;14024;52.226;5.200;2023-08-20T14:17:16;7.47;;;1.75;;
26319;SDS011;14024;52.226;5.200;2023-08-20T14:19:41;3.97;;;1.38;;
26319;SDS011;14024;52.226;5.200;2023-08-20T14:22:07;6.30;;;1.58;;
26319;SDS011;14024;52.226;5.200;2023-08-20T14:24:32;5.38;;;1.33;;
26319;SDS011;14024;52.226;5.200;2023-08-20T14:26:58;5.60;;;1.90;;
26319;SDS011;14024;52.226;5.200;2023-08-20T14:29:23;5.70;;;1.70;;
26319;SDS011;14024;52.226;5.200;2023-08-20T14:31:48;6.57;;;1.77;;
26319;SDS011;14024;52.226;5.200;2023-08-20T14:34:14;5.25;;;1.52;;
26319;SDS011;14024;52.226;5.200;2023-08-20T14:36:39;5.68;;;1.83;;
26319;SDS011;14024;52.226;5.200;2023-08-20T14:39:05;7.40;;;1.50;;
26319;SDS011;14024;52.226;5.200;2023-08-20T14:41:31;6.78;;;1.55;;
26319;SDS011;14024;52.226;5.200;2023-08-20T14:43:56;11.60;;;2.20;;
26319;SDS011;14024;52.226;5.200;2023-08-20T14:46:21;5.57;;;1.60;;
26319;SDS011;14024;52.226;5.200;2023-08-20T14:48:47;6.35;;;1.50;;